sensor_id;sensor_type;location;lat;lon;timestamp;temperature;humidity
7077;DHT22;3579;48.956;9.154;2022-09-11T00:01:37;23.60;52.70
7077;DHT22;3579;48.956;9.154;2022-09-11T00:04:05;23.60;52.70
7077;DHT22;3579;48.956;9.154;2022-09-11T00:06:31;23.50;52.60
7077;DHT22;3579;48.956;9.154;2022-09-11T00:09:02;23.50;52.70
7077;DHT22;3579;48.956;9.154;2022-09-11T00:11:33;23.60;52.80
7077;DHT22;3579;48.956;9.154;2022-09-11T00:14:00;23.60;52.80
7077;DHT22;3579;48.956;9.154;2022-09-11T00:16:29;23.50;52.80
7077;DHT22;3579;48.956;9.154;2022-09-11T00:18:58;23.60;52.80
7077;DHT22;3579;48.956;9.154;2022-09-11T00:21:25;23.60;52.80
7077;DHT22;3579;48.956;9.154;2022-09-11T00:23:51;23.50;52.80
7077;DHT22;3579;48.956;9.154;2022-09-11T00:26:19;23.50;52.80
7077;DHT22;3579;48.956;9.154;2022-09-11T00:28:46;23.50;52.80
7077;DHT22;3579;48.956;9.154;2022-09-11T00:31:15;23.50;52.80
7077;DHT22;3579;48.956;9.154;2022-09-11T00:33:42;23.50;52.80
7077;DHT22;3579;48.956;9.154;2022-09-11T00:36:12;23.50;52.80
7077;DHT22;3579;48.956;9.154;2022-09-11T00:38:39;23.50;52.80
7077;DHT22;3579;48.956;9.154;2022-09-11T00:41:12;23.50;52.80
7077;DHT22;3579;48.956;9.154;2022-09-11T00:46:38;23.50;52.90
7077;DHT22;3579;48.956;9.154;2022-09-11T00:49:21;23.50;52.90
7077;DHT22;3579;48.956;9.154;2022-09-11T00:51:58;23.50;52.90
7077;DHT22;3579;48.956;9.154;2022-09-11T00:54:29;23.50;52.80
7077;DHT22;3579;48.956;9.154;2022-09-11T00:56:58;23.50;52.90
7077;DHT22;3579;48.956;9.154;2022-09-11T00:59:26;23.50;53.00
7077;DHT22;3579;48.956;9.154;2022-09-11T01:01:54;23.50;53.00
7077;DHT22;3579;48.956;9.154;2022-09-11T01:04:21;23.40;52.90
7077;DHT22;3579;48.956;9.154;2022-09-11T01:06:51;23.40;53.00
7077;DHT22;3579;48.956;9.154;2022-09-11T01:09:18;23.40;53.00
7077;DHT22;3579;48.956;9.154;2022-09-11T01:12:05;23.40;53.00
7077;DHT22;3579;48.956;9.154;2022-09-11T01:17:20;23.40;53.60
7077;DHT22;3579;48.956;9.154;2022-09-11T01:31:05;23.40;53.20
7077;DHT22;3579;48.956;9.154;2022-09-11T01:33:43;23.40;53.20
7077;DHT22;3579;48.956;9.154;2022-09-11T01:36:18;23.40;53.10
7077;DHT22;3579;48.956;9.154;2022-09-11T01:38:57;23.40;53.10
7077;DHT22;3579;48.956;9.154;2022-09-11T01:44:06;23.40;53.20
7077;DHT22;3579;48.956;9.154;2022-09-11T01:46:38;23.40;53.10
7077;DHT22;3579;48.956;9.154;2022-09-11T01:49:37;23.40;53.10
7077;DHT22;3579;48.956;9.154;2022-09-11T01:52:14;23.40;53.20
7077;DHT22;3579;48.956;9.154;2022-09-11T01:54:51;23.30;53.10
7077;DHT22;3579;48.956;9.154;2022-09-11T01:57:30;23.30;53.20
7077;DHT22;3579;48.956;9.154;2022-09-11T02:00:01;23.40;53.20
7077;DHT22;3579;48.956;9.154;2022-09-11T02:02:37;23.40;53.20
7077;DHT22;3579;48.956;9.154;2022-09-11T02:05:22;23.30;53.20
7077;DHT22;3579;48.956;9.154;2022-09-11T02:10:26;23.30;53.30
7077;DHT22;3579;48.956;9.154;2022-09-11T02:13:26;23.30;53.30
7077;DHT22;3579;48.956;9.154;2022-09-11T02:16:08;23.30;53.30
7077;DHT22;3579;48.956;9.154;2022-09-11T02:18:57;23.30;53.30
7077;DHT22;3579;48.956;9.154;2022-09-11T02:21:25;23.30;53.30
7077;DHT22;3579;48.956;9.154;2022-09-11T02:23:53;23.30;53.30
7077;DHT22;3579;48.956;9.154;2022-09-11T02:26:25;23.30;53.40
7077;DHT22;3579;48.956;9.154;2022-09-11T02:28:52;23.30;53.30
7077;DHT22;3579;48.956;9.154;2022-09-11T02:31:20;23.30;53.30
7077;DHT22;3579;48.956;9.154;2022-09-11T02:33:47;23.30;53.30
7077;DHT22;3579;48.956;9.154;2022-09-11T02:42:13;23.30;53.40
7077;DHT22;3579;48.956;9.154;2022-09-11T02:53:58;23.30;53.50
7077;DHT22;3579;48.956;9.154;2022-09-11T02:57:07;23.20;53.40
7077;DHT22;3579;48.956;9.154;2022-09-11T02:59:35;23.20;53.40
7077;DHT22;3579;48.956;9.154;2022-09-11T03:02:09;23.20;53.40
7077;DHT22;3579;48.956;9.154;2022-09-11T03:04:37;23.20;53.40
7077;DHT22;3579;48.956;9.154;2022-09-11T03:07:03;23.20;53.50
7077;DHT22;3579;48.956;9.154;2022-09-11T03:09:30;23.20;53.50
7077;DHT22;3579;48.956;9.154;2022-09-11T03:11:56;23.20;53.50
7077;DHT22;3579;48.956;9.154;2022-09-11T03:14:22;23.30;53.50
7077;DHT22;3579;48.956;9.154;2022-09-11T03:16:48;23.20;53.40
7077;DHT22;3579;48.956;9.154;2022-09-11T03:19:14;23.20;53.40
7077;DHT22;3579;48.956;9.154;2022-09-11T03:21:40;23.20;53.50
7077;DHT22;3579;48.956;9.154;2022-09-11T03:24:08;23.20;53.50
7077;DHT22;3579;48.956;9.154;2022-09-11T03:26:35;23.20;53.50
7077;DHT22;3579;48.956;9.154;2022-09-11T03:29:02;23.20;53.50
7077;DHT22;3579;48.956;9.154;2022-09-11T03:31:28;23.20;53.50
7077;DHT22;3579;48.956;9.154;2022-09-11T03:33:55;23.20;54.10
7077;DHT22;3579;48.956;9.154;2022-09-11T03:36:21;23.20;54.10
7077;DHT22;3579;48.956;9.154;2022-09-11T03:38:47;23.20;53.60
7077;DHT22;3579;48.956;9.154;2022-09-11T03:41:14;23.20;53.60
7077;DHT22;3579;48.956;9.154;2022-09-11T03:43:40;23.20;53.70
7077;DHT22;3579;48.956;9.154;2022-09-11T03:46:06;23.20;53.60
7077;DHT22;3579;48.956;9.154;2022-09-11T03:48:32;23.20;53.60
7077;DHT22;3579;48.956;9.154;2022-09-11T03:50:59;23.20;53.70
7077;DHT22;3579;48.956;9.154;2022-09-11T03:53:25;23.20;53.70
7077;DHT22;3579;48.956;9.154;2022-09-11T03:55:52;23.20;53.80
7077;DHT22;3579;48.956;9.154;2022-09-11T03:58:19;23.20;53.70
7077;DHT22;3579;48.956;9.154;2022-09-11T04:00:46;23.20;53.70
7077;DHT22;3579;48.956;9.154;2022-09-11T04:03:13;23.10;53.70
7077;DHT22;3579;48.956;9.154;2022-09-11T04:05:41;23.10;53.70
7077;DHT22;3579;48.956;9.154;2022-09-11T04:08:11;23.10;53.70
7077;DHT22;3579;48.956;9.154;2022-09-11T04:10:38;23.10;53.70
7077;DHT22;3579;48.956;9.154;2022-09-11T04:13:04;23.10;53.70
7077;DHT22;3579;48.956;9.154;2022-09-11T04:15:30;23.10;53.70
7077;DHT22;3579;48.956;9.154;2022-09-11T04:17:57;23.10;53.80
7077;DHT22;3579;48.956;9.154;2022-09-11T04:20:23;23.10;53.80
7077;DHT22;3579;48.956;9.154;2022-09-11T04:22:49;23.10;53.80
7077;DHT22;3579;48.956;9.154;2022-09-11T04:25:17;23.10;53.90
7077;DHT22;3579;48.956;9.154;2022-09-11T04:27:43;23.10;53.90
7077;DHT22;3579;48.956;9.154;2022-09-11T04:30:09;23.10;53.90
7077;DHT22;3579;48.956;9.154;2022-09-11T04:32:35;23.10;53.90
7077;DHT22;3579;48.956;9.154;2022-09-11T04:35:01;23.10;53.90
7077;DHT22;3579;48.956;9.154;2022-09-11T04:37:28;23.10;53.90
7077;DHT22;3579;48.956;9.154;2022-09-11T04:39:54;23.10;53.90
7077;DHT22;3579;48.956;9.154;2022-09-11T04:42:20;23.10;53.80
7077;DHT22;3579;48.956;9.154;2022-09-11T04:44:46;23.10;53.90
7077;DHT22;3579;48.956;9.154;2022-09-11T04:47:12;23.10;53.90
7077;DHT22;3579;48.956;9.154;2022-09-11T04:49:38;23.10;53.90
7077;DHT22;3579;48.956;9.154;2022-09-11T04:52:05;23.10;54.00
7077;DHT22;3579;48.956;9.154;2022-09-11T04:54:32;23.10;54.00
7077;DHT22;3579;48.956;9.154;2022-09-11T04:57:02;23.10;54.00
7077;DHT22;3579;48.956;9.154;2022-09-11T04:59:28;23.10;54.00
7077;DHT22;3579;48.956;9.154;2022-09-11T05:01:55;23.10;54.00
7077;DHT22;3579;48.956;9.154;2022-09-11T05:04:21;23.10;54.00
7077;DHT22;3579;48.956;9.154;2022-09-11T05:06:47;23.10;54.00
7077;DHT22;3579;48.956;9.154;2022-09-11T05:09:14;23.10;54.00
7077;DHT22;3579;48.956;9.154;2022-09-11T05:11:42;23.10;54.10
7077;DHT22;3579;48.956;9.154;2022-09-11T05:14:08;23.10;54.00
7077;DHT22;3579;48.956;9.154;2022-09-11T05:16:36;23.10;54.00
7077;DHT22;3579;48.956;9.154;2022-09-11T05:19:03;23.10;54.00
7077;DHT22;3579;48.956;9.154;2022-09-11T05:21:30;23.10;54.00
7077;DHT22;3579;48.956;9.154;2022-09-11T05:23:58;23.10;54.00
7077;DHT22;3579;48.956;9.154;2022-09-11T05:26:34;23.10;54.00
7077;DHT22;3579;48.956;9.154;2022-09-11T05:29:03;23.10;54.10
7077;DHT22;3579;48.956;9.154;2022-09-11T05:31:29;23.10;54.10
7077;DHT22;3579;48.956;9.154;2022-09-11T05:33:56;23.10;54.20
7077;DHT22;3579;48.956;9.154;2022-09-11T05:36:25;23.10;54.20
7077;DHT22;3579;48.956;9.154;2022-09-11T05:38:52;23.10;54.20
7077;DHT22;3579;48.956;9.154;2022-09-11T05:41:19;23.10;54.70
7077;DHT22;3579;48.956;9.154;2022-09-11T05:43:45;23.10;54.20
7077;DHT22;3579;48.956;9.154;2022-09-11T05:46:14;23.00;54.10
7077;DHT22;3579;48.956;9.154;2022-09-11T05:48:41;23.00;54.10
7077;DHT22;3579;48.956;9.154;2022-09-11T05:51:18;23.00;54.10
7077;DHT22;3579;48.956;9.154;2022-09-11T05:53:47;23.00;54.10
7077;DHT22;3579;48.956;9.154;2022-09-11T05:56:21;23.00;54.10
7077;DHT22;3579;48.956;9.154;2022-09-11T05:58:48;23.00;54.10
7077;DHT22;3579;48.956;9.154;2022-09-11T06:01:18;23.00;54.10
7077;DHT22;3579;48.956;9.154;2022-09-11T06:03:45;23.10;54.20
7077;DHT22;3579;48.956;9.154;2022-09-11T06:06:16;23.10;54.10
7077;DHT22;3579;48.956;9.154;2022-09-11T06:08:43;23.10;54.20
7077;DHT22;3579;48.956;9.154;2022-09-11T06:11:10;23.00;54.10
7077;DHT22;3579;48.956;9.154;2022-09-11T06:13:39;23.10;54.10
7077;DHT22;3579;48.956;9.154;2022-09-11T06:16:16;23.10;54.10
7077;DHT22;3579;48.956;9.154;2022-09-11T06:18:42;23.10;54.10
7077;DHT22;3579;48.956;9.154;2022-09-11T06:21:12;23.10;54.00
7077;DHT22;3579;48.956;9.154;2022-09-11T06:23:39;23.10;54.10
7077;DHT22;3579;48.956;9.154;2022-09-11T06:26:07;23.10;54.10
7077;DHT22;3579;48.956;9.154;2022-09-11T06:28:35;23.10;54.10
7077;DHT22;3579;48.956;9.154;2022-09-11T06:31:05;23.10;54.00
7077;DHT22;3579;48.956;9.154;2022-09-11T06:33:33;23.10;54.00
7077;DHT22;3579;48.956;9.154;2022-09-11T06:36:03;23.10;54.70
7077;DHT22;3579;48.956;9.154;2022-09-11T06:38:30;23.10;54.10
7077;DHT22;3579;48.956;9.154;2022-09-11T06:40:59;23.10;54.10
7077;DHT22;3579;48.956;9.154;2022-09-11T06:43:28;23.10;54.00
7077;DHT22;3579;48.956;9.154;2022-09-11T06:45:54;23.10;54.00
7077;DHT22;3579;48.956;9.154;2022-09-11T06:48:29;23.20;54.00
7077;DHT22;3579;48.956;9.154;2022-09-11T06:50:55;23.20;54.00
7077;DHT22;3579;48.956;9.154;2022-09-11T06:53:22;23.20;54.00
7077;DHT22;3579;48.956;9.154;2022-09-11T06:55:48;23.20;53.90
7077;DHT22;3579;48.956;9.154;2022-09-11T06:58:14;23.20;53.90
7077;DHT22;3579;48.956;9.154;2022-09-11T07:00:40;23.20;53.90
7077;DHT22;3579;48.956;9.154;2022-09-11T07:03:07;23.20;53.90
7077;DHT22;3579;48.956;9.154;2022-09-11T07:05:33;23.20;53.80
7077;DHT22;3579;48.956;9.154;2022-09-11T07:07:59;23.20;53.80
7077;DHT22;3579;48.956;9.154;2022-09-11T07:10:25;23.20;53.80
7077;DHT22;3579;48.956;9.154;2022-09-11T07:12:52;23.30;53.80
7077;DHT22;3579;48.956;9.154;2022-09-11T07:15:19;23.30;53.80
7077;DHT22;3579;48.956;9.154;2022-09-11T07:17:45;23.30;53.70
7077;DHT22;3579;48.956;9.154;2022-09-11T07:20:11;23.30;53.70
7077;DHT22;3579;48.956;9.154;2022-09-11T07:22:37;23.30;53.70
7077;DHT22;3579;48.956;9.154;2022-09-11T07:25:05;23.30;53.60
7077;DHT22;3579;48.956;9.154;2022-09-11T07:27:32;23.40;53.60
7077;DHT22;3579;48.956;9.154;2022-09-11T07:29:58;23.40;53.50
7077;DHT22;3579;48.956;9.154;2022-09-11T07:32:24;23.50;54.10
7077;DHT22;3579;48.956;9.154;2022-09-11T07:34:51;23.50;53.40
7077;DHT22;3579;48.956;9.154;2022-09-11T07:37:18;23.60;53.30
7077;DHT22;3579;48.956;9.154;2022-09-11T07:39:44;23.60;53.30
7077;DHT22;3579;48.956;9.154;2022-09-11T07:42:09;23.60;53.10
7077;DHT22;3579;48.956;9.154;2022-09-11T07:44:36;23.60;53.10
7077;DHT22;3579;48.956;9.154;2022-09-11T07:47:03;23.60;53.10
7077;DHT22;3579;48.956;9.154;2022-09-11T07:49:30;23.60;53.00
7077;DHT22;3579;48.956;9.154;2022-09-11T07:51:56;23.60;53.10
7077;DHT22;3579;48.956;9.154;2022-09-11T07:54:24;23.60;53.00
7077;DHT22;3579;48.956;9.154;2022-09-11T07:56:54;23.60;53.00
7077;DHT22;3579;48.956;9.154;2022-09-11T07:59:20;23.70;53.00
7077;DHT22;3579;48.956;9.154;2022-09-11T08:01:47;23.70;53.00
7077;DHT22;3579;48.956;9.154;2022-09-11T08:04:15;23.70;52.90
7077;DHT22;3579;48.956;9.154;2022-09-11T08:06:42;23.70;52.90
7077;DHT22;3579;48.956;9.154;2022-09-11T08:09:11;23.70;52.80
7077;DHT22;3579;48.956;9.154;2022-09-11T08:11:43;23.70;52.80
7077;DHT22;3579;48.956;9.154;2022-09-11T08:14:11;23.80;53.40
7077;DHT22;3579;48.956;9.154;2022-09-11T08:16:38;23.80;52.80
7077;DHT22;3579;48.956;9.154;2022-09-11T08:19:05;23.90;52.80
7077;DHT22;3579;48.956;9.154;2022-09-11T08:21:33;23.90;52.60
7077;DHT22;3579;48.956;9.154;2022-09-11T08:23:59;23.90;52.60
7077;DHT22;3579;48.956;9.154;2022-09-11T08:26:27;23.90;52.60
7077;DHT22;3579;48.956;9.154;2022-09-11T08:28:55;23.90;52.60
7077;DHT22;3579;48.956;9.154;2022-09-11T08:31:24;23.90;53.20
7077;DHT22;3579;48.956;9.154;2022-09-11T08:33:52;23.90;52.70
7077;DHT22;3579;48.956;9.154;2022-09-11T08:36:18;23.90;52.60
7077;DHT22;3579;48.956;9.154;2022-09-11T08:38:45;23.90;52.50
7077;DHT22;3579;48.956;9.154;2022-09-11T08:46:26;24.40;52.00
7077;DHT22;3579;48.956;9.154;2022-09-11T08:49:18;24.50;52.00
7077;DHT22;3579;48.956;9.154;2022-09-11T08:51:47;24.70;52.00
7077;DHT22;3579;48.956;9.154;2022-09-11T08:54:34;24.70;52.00
7077;DHT22;3579;48.956;9.154;2022-09-11T09:05:14;25.10;51.60
7077;DHT22;3579;48.956;9.154;2022-09-11T09:08:04;25.10;51.50
7077;DHT22;3579;48.956;9.154;2022-09-11T09:13:49;25.00;51.90
7077;DHT22;3579;48.956;9.154;2022-09-11T09:17:11;25.00;52.10
7077;DHT22;3579;48.956;9.154;2022-09-11T09:24:46;25.00;52.20
7077;DHT22;3579;48.956;9.154;2022-09-11T09:27:17;25.10;51.90
7077;DHT22;3579;48.956;9.154;2022-09-11T09:29:45;25.20;51.80
7077;DHT22;3579;48.956;9.154;2022-09-11T09:32:28;25.20;51.70
7077;DHT22;3579;48.956;9.154;2022-09-11T09:34:59;25.30;51.70
7077;DHT22;3579;48.956;9.154;2022-09-11T09:37:27;25.40;51.40
7077;DHT22;3579;48.956;9.154;2022-09-11T09:39:53;25.50;51.30
7077;DHT22;3579;48.956;9.154;2022-09-11T09:42:35;25.50;51.20
7077;DHT22;3579;48.956;9.154;2022-09-11T09:47:59;25.50;51.30
7077;DHT22;3579;48.956;9.154;2022-09-11T09:50:32;25.40;51.40
7077;DHT22;3579;48.956;9.154;2022-09-11T09:55:45;25.30;51.70
7077;DHT22;3579;48.956;9.154;2022-09-11T09:58:13;25.30;51.90
7077;DHT22;3579;48.956;9.154;2022-09-11T10:00:39;25.30;51.90
7077;DHT22;3579;48.956;9.154;2022-09-11T10:03:18;25.20;52.50
7077;DHT22;3579;48.956;9.154;2022-09-11T10:05:44;25.20;52.00
7077;DHT22;3579;48.956;9.154;2022-09-11T10:08:33;25.20;52.00
7077;DHT22;3579;48.956;9.154;2022-09-11T10:11:05;25.20;52.00
7077;DHT22;3579;48.956;9.154;2022-09-11T10:13:42;25.20;51.90
7077;DHT22;3579;48.956;9.154;2022-09-11T10:16:23;25.40;51.70
7077;DHT22;3579;48.956;9.154;2022-09-11T10:18:50;25.50;51.60
7077;DHT22;3579;48.956;9.154;2022-09-11T10:21:27;25.50;51.50
7077;DHT22;3579;48.956;9.154;2022-09-11T10:29:10;25.60;51.30
7077;DHT22;3579;48.956;9.154;2022-09-11T10:31:39;25.60;51.30
7077;DHT22;3579;48.956;9.154;2022-09-11T10:34:11;25.60;51.30
7077;DHT22;3579;48.956;9.154;2022-09-11T10:36:38;25.60;51.30
7077;DHT22;3579;48.956;9.154;2022-09-11T10:39:04;25.60;51.40
7077;DHT22;3579;48.956;9.154;2022-09-11T10:41:30;25.50;51.40
7077;DHT22;3579;48.956;9.154;2022-09-11T10:51:41;25.50;51.60
7077;DHT22;3579;48.956;9.154;2022-09-11T11:00:02;25.50;51.60
7077;DHT22;3579;48.956;9.154;2022-09-11T11:02:34;25.50;51.60
7077;DHT22;3579;48.956;9.154;2022-09-11T11:05:07;25.50;51.50
7077;DHT22;3579;48.956;9.154;2022-09-11T11:16:56;25.50;51.50
7077;DHT22;3579;48.956;9.154;2022-09-11T11:35:42;25.70;51.10
7077;DHT22;3579;48.956;9.154;2022-09-11T11:38:21;25.80;51.10
7077;DHT22;3579;48.956;9.154;2022-09-11T11:40:53;25.80;51.00
7077;DHT22;3579;48.956;9.154;2022-09-11T11:43:25;25.80;51.00
7077;DHT22;3579;48.956;9.154;2022-09-11T11:45:54;25.80;50.90
7077;DHT22;3579;48.956;9.154;2022-09-11T11:51:07;25.80;50.80
7077;DHT22;3579;48.956;9.154;2022-09-11T12:04:45;25.80;51.00
7077;DHT22;3579;48.956;9.154;2022-09-11T12:09:49;25.80;51.00
7077;DHT22;3579;48.956;9.154;2022-09-11T12:12:17;25.70;51.00
7077;DHT22;3579;48.956;9.154;2022-09-11T12:15:19;25.70;51.10
7077;DHT22;3579;48.956;9.154;2022-09-11T12:17:36;25.70;51.20
7077;DHT22;3579;48.956;9.154;2022-09-11T12:22:44;25.60;51.30
7077;DHT22;3579;48.956;9.154;2022-09-11T12:32:53;25.60;51.20
7077;DHT22;3579;48.956;9.154;2022-09-11T12:46:07;25.70;51.20
7077;DHT22;3579;48.956;9.154;2022-09-11T12:48:44;25.70;51.20
7077;DHT22;3579;48.956;9.154;2022-09-11T12:51:34;25.70;51.10
7077;DHT22;3579;48.956;9.154;2022-09-11T12:54:03;25.70;51.10
7077;DHT22;3579;48.956;9.154;2022-09-11T12:57:05;25.70;51.10
7077;DHT22;3579;48.956;9.154;2022-09-11T12:59:38;25.70;51.10
7077;DHT22;3579;48.956;9.154;2022-09-11T13:02:29;25.70;51.10
7077;DHT22;3579;48.956;9.154;2022-09-11T13:04:58;25.70;51.10
7077;DHT22;3579;48.956;9.154;2022-09-11T13:07:46;25.70;51.10
7077;DHT22;3579;48.956;9.154;2022-09-11T13:10:33;25.80;51.10
7077;DHT22;3579;48.956;9.154;2022-09-11T13:13:01;25.80;51.10
7077;DHT22;3579;48.956;9.154;2022-09-11T13:15:39;25.80;51.10
7077;DHT22;3579;48.956;9.154;2022-09-11T13:21:11;25.80;50.90
7077;DHT22;3579;48.956;9.154;2022-09-11T13:23:38;25.80;50.90
7077;DHT22;3579;48.956;9.154;2022-09-11T13:26:05;25.90;50.80
7077;DHT22;3579;48.956;9.154;2022-09-11T13:28:41;25.90;50.90
7077;DHT22;3579;48.956;9.154;2022-09-11T13:31:21;25.90;50.80
7077;DHT22;3579;48.956;9.154;2022-09-11T13:33:51;25.90;50.80
7077;DHT22;3579;48.956;9.154;2022-09-11T13:36:22;25.90;50.80
7077;DHT22;3579;48.956;9.154;2022-09-11T13:38:56;25.80;50.80
7077;DHT22;3579;48.956;9.154;2022-09-11T13:41:30;25.90;50.90
7077;DHT22;3579;48.956;9.154;2022-09-11T13:43:59;25.90;50.90
7077;DHT22;3579;48.956;9.154;2022-09-11T13:46:30;25.80;50.80
7077;DHT22;3579;48.956;9.154;2022-09-11T13:51:38;25.90;50.80
7077;DHT22;3579;48.956;9.154;2022-09-11T13:54:13;25.90;51.30
7077;DHT22;3579;48.956;9.154;2022-09-11T13:59:46;25.90;50.70
7077;DHT22;3579;48.956;9.154;2022-09-11T14:02:39;25.90;50.70
7077;DHT22;3579;48.956;9.154;2022-09-11T14:08:04;25.90;50.70
7077;DHT22;3579;48.956;9.154;2022-09-11T14:13:08;26.00;50.70
7077;DHT22;3579;48.956;9.154;2022-09-11T14:15:48;26.00;50.70
7077;DHT22;3579;48.956;9.154;2022-09-11T14:18:27;25.90;50.70
7077;DHT22;3579;48.956;9.154;2022-09-11T14:20:56;26.00;50.70
7077;DHT22;3579;48.956;9.154;2022-09-11T14:23:26;25.90;50.70
7077;DHT22;3579;48.956;9.154;2022-09-11T14:31:39;25.90;50.80
7077;DHT22;3579;48.956;9.154;2022-09-11T14:39:31;25.90;50.80
7077;DHT22;3579;48.956;9.154;2022-09-11T14:41:58;25.90;50.70
7077;DHT22;3579;48.956;9.154;2022-09-11T14:44:26;25.90;50.80
7077;DHT22;3579;48.956;9.154;2022-09-11T14:46:53;25.90;50.70
7077;DHT22;3579;48.956;9.154;2022-09-11T14:49:20;25.90;50.80
7077;DHT22;3579;48.956;9.154;2022-09-11T14:51:54;25.90;50.70
7077;DHT22;3579;48.956;9.154;2022-09-11T14:54:24;25.90;50.80
7077;DHT22;3579;48.956;9.154;2022-09-11T14:56:50;25.90;50.70
7077;DHT22;3579;48.956;9.154;2022-09-11T14:59:17;25.90;50.70
7077;DHT22;3579;48.956;9.154;2022-09-11T15:01:45;25.90;50.70
7077;DHT22;3579;48.956;9.154;2022-09-11T15:04:16;25.90;50.80
7077;DHT22;3579;48.956;9.154;2022-09-11T15:06:43;25.90;50.80
7077;DHT22;3579;48.956;9.154;2022-09-11T15:09:09;25.90;50.80
7077;DHT22;3579;48.956;9.154;2022-09-11T15:11:35;25.90;50.70
7077;DHT22;3579;48.956;9.154;2022-09-11T15:14:01;25.90;50.80
7077;DHT22;3579;48.956;9.154;2022-09-11T15:16:27;25.90;50.80
7077;DHT22;3579;48.956;9.154;2022-09-11T15:18:53;25.90;50.70
7077;DHT22;3579;48.956;9.154;2022-09-11T15:21:20;25.90;50.80
7077;DHT22;3579;48.956;9.154;2022-09-11T15:23:46;25.90;50.80
7077;DHT22;3579;48.956;9.154;2022-09-11T15:26:13;25.90;50.80
7077;DHT22;3579;48.956;9.154;2022-09-11T15:28:39;25.90;50.80
7077;DHT22;3579;48.956;9.154;2022-09-11T15:31:06;25.90;50.90
7077;DHT22;3579;48.956;9.154;2022-09-11T15:33:32;25.90;50.90
7077;DHT22;3579;48.956;9.154;2022-09-11T15:36:03;25.80;50.90
7077;DHT22;3579;48.956;9.154;2022-09-11T15:38:30;25.80;50.80
7077;DHT22;3579;48.956;9.154;2022-09-11T15:40:57;25.80;50.90
7077;DHT22;3579;48.956;9.154;2022-09-11T15:43:24;25.80;50.90
7077;DHT22;3579;48.956;9.154;2022-09-11T15:45:50;25.80;50.90
7077;DHT22;3579;48.956;9.154;2022-09-11T15:48:17;25.80;51.00
7077;DHT22;3579;48.956;9.154;2022-09-11T15:50:44;25.80;51.00
7077;DHT22;3579;48.956;9.154;2022-09-11T15:53:10;25.80;51.00
7077;DHT22;3579;48.956;9.154;2022-09-11T15:55:37;25.80;51.00
7077;DHT22;3579;48.956;9.154;2022-09-11T15:58:03;25.80;51.00
7077;DHT22;3579;48.956;9.154;2022-09-11T16:00:30;25.80;51.00
7077;DHT22;3579;48.956;9.154;2022-09-11T16:02:56;25.80;51.00
7077;DHT22;3579;48.956;9.154;2022-09-11T16:05:22;25.80;51.00
7077;DHT22;3579;48.956;9.154;2022-09-11T16:07:48;25.80;51.00
7077;DHT22;3579;48.956;9.154;2022-09-11T16:10:15;25.80;51.00
7077;DHT22;3579;48.956;9.154;2022-09-11T16:12:41;25.80;51.00
7077;DHT22;3579;48.956;9.154;2022-09-11T16:15:07;25.80;51.60
7077;DHT22;3579;48.956;9.154;2022-09-11T16:17:34;25.80;51.10
7077;DHT22;3579;48.956;9.154;2022-09-11T16:20:00;25.80;51.10
7077;DHT22;3579;48.956;9.154;2022-09-11T16:22:26;25.80;51.10
7077;DHT22;3579;48.956;9.154;2022-09-11T16:24:56;25.70;51.10
7077;DHT22;3579;48.956;9.154;2022-09-11T16:27:23;25.70;51.20
7077;DHT22;3579;48.956;9.154;2022-09-11T16:29:50;25.70;51.20
7077;DHT22;3579;48.956;9.154;2022-09-11T16:32:17;25.70;51.30
7077;DHT22;3579;48.956;9.154;2022-09-11T16:34:53;25.70;51.20
7077;DHT22;3579;48.956;9.154;2022-09-11T16:37:19;25.70;51.30
7077;DHT22;3579;48.956;9.154;2022-09-11T16:39:48;25.70;51.30
7077;DHT22;3579;48.956;9.154;2022-09-11T16:42:14;25.70;51.30
7077;DHT22;3579;48.956;9.154;2022-09-11T16:44:41;25.70;51.20
7077;DHT22;3579;48.956;9.154;2022-09-11T16:47:07;25.70;51.20
7077;DHT22;3579;48.956;9.154;2022-09-11T16:49:34;25.70;51.20
7077;DHT22;3579;48.956;9.154;2022-09-11T16:52:01;25.70;51.20
7077;DHT22;3579;48.956;9.154;2022-09-11T16:54:29;25.70;51.30
7077;DHT22;3579;48.956;9.154;2022-09-11T16:56:55;25.70;51.30
7077;DHT22;3579;48.956;9.154;2022-09-11T16:59:21;25.70;51.30
7077;DHT22;3579;48.956;9.154;2022-09-11T17:01:47;25.60;51.30
7077;DHT22;3579;48.956;9.154;2022-09-11T17:04:13;25.60;51.30
7077;DHT22;3579;48.956;9.154;2022-09-11T17:06:39;25.60;51.30
7077;DHT22;3579;48.956;9.154;2022-09-11T17:09:05;25.60;51.30
7077;DHT22;3579;48.956;9.154;2022-09-11T17:11:32;25.60;51.80
7077;DHT22;3579;48.956;9.154;2022-09-11T17:14:01;25.60;51.30
7077;DHT22;3579;48.956;9.154;2022-09-11T17:16:31;25.60;51.30
7077;DHT22;3579;48.956;9.154;2022-09-11T17:18:58;25.60;51.40
7077;DHT22;3579;48.956;9.154;2022-09-11T17:21:26;25.50;51.30
7077;DHT22;3579;48.956;9.154;2022-09-11T17:23:54;25.50;51.40
7077;DHT22;3579;48.956;9.154;2022-09-11T17:26:21;25.50;51.30
7077;DHT22;3579;48.956;9.154;2022-09-11T17:28:49;25.50;51.30
7077;DHT22;3579;48.956;9.154;2022-09-11T17:31:16;25.50;51.40
7077;DHT22;3579;48.956;9.154;2022-09-11T17:33:43;25.50;51.40
7077;DHT22;3579;48.956;9.154;2022-09-11T17:36:11;25.50;51.40
7077;DHT22;3579;48.956;9.154;2022-09-11T17:38:38;25.50;51.40
7077;DHT22;3579;48.956;9.154;2022-09-11T17:41:06;25.50;51.50
7077;DHT22;3579;48.956;9.154;2022-09-11T17:43:33;25.40;51.40
7077;DHT22;3579;48.956;9.154;2022-09-11T17:46:04;25.40;51.40
7077;DHT22;3579;48.956;9.154;2022-09-11T17:48:31;25.40;51.50
7077;DHT22;3579;48.956;9.154;2022-09-11T17:51:06;25.40;51.60
7077;DHT22;3579;48.956;9.154;2022-09-11T17:53:33;25.30;51.60
7077;DHT22;3579;48.956;9.154;2022-09-11T17:56:11;25.30;51.60
7077;DHT22;3579;48.956;9.154;2022-09-11T17:58:39;25.30;51.70
7077;DHT22;3579;48.956;9.154;2022-09-11T18:01:07;25.30;51.70
7077;DHT22;3579;48.956;9.154;2022-09-11T18:03:34;25.30;51.70
7077;DHT22;3579;48.956;9.154;2022-09-11T18:06:02;25.20;51.70
7077;DHT22;3579;48.956;9.154;2022-09-11T18:08:29;25.20;51.80
7077;DHT22;3579;48.956;9.154;2022-09-11T18:10:59;25.20;51.80
7077;DHT22;3579;48.956;9.154;2022-09-11T18:13:27;25.20;51.90
7077;DHT22;3579;48.956;9.154;2022-09-11T18:15:53;25.10;51.90
7077;DHT22;3579;48.956;9.154;2022-09-11T18:18:21;25.10;51.90
7077;DHT22;3579;48.956;9.154;2022-09-11T18:20:47;25.10;51.90
7077;DHT22;3579;48.956;9.154;2022-09-11T18:23:14;25.10;51.90
7077;DHT22;3579;48.956;9.154;2022-09-11T18:25:41;25.10;52.60
7077;DHT22;3579;48.956;9.154;2022-09-11T18:28:08;25.10;52.10
7077;DHT22;3579;48.956;9.154;2022-09-11T18:30:35;25.10;52.10
7077;DHT22;3579;48.956;9.154;2022-09-11T18:33:09;25.00;52.10
7077;DHT22;3579;48.956;9.154;2022-09-11T18:35:36;25.00;52.00
7077;DHT22;3579;48.956;9.154;2022-09-11T18:38:04;25.00;52.10
7077;DHT22;3579;48.956;9.154;2022-09-11T18:40:30;25.00;52.20
7077;DHT22;3579;48.956;9.154;2022-09-11T18:42:56;24.90;52.10
7077;DHT22;3579;48.956;9.154;2022-09-11T18:45:23;24.90;52.10
7077;DHT22;3579;48.956;9.154;2022-09-11T18:47:50;24.90;52.10
7077;DHT22;3579;48.956;9.154;2022-09-11T18:50:19;24.90;52.20
7077;DHT22;3579;48.956;9.154;2022-09-11T18:52:45;24.90;52.20
7077;DHT22;3579;48.956;9.154;2022-09-11T18:55:15;24.90;52.30
7077;DHT22;3579;48.956;9.154;2022-09-11T18:57:45;24.90;52.20
7077;DHT22;3579;48.956;9.154;2022-09-11T19:00:13;24.90;52.20
7077;DHT22;3579;48.956;9.154;2022-09-11T19:02:41;24.90;52.20
7077;DHT22;3579;48.956;9.154;2022-09-11T19:05:07;24.80;52.20
7077;DHT22;3579;48.956;9.154;2022-09-11T19:07:33;24.80;52.30
7077;DHT22;3579;48.956;9.154;2022-09-11T19:10:01;24.80;52.30